createdAt,value
2019-01-02T00:00:36.007Z,20.40
2019-01-02T00:03:17.028Z,20.40
2019-01-02T00:05:58.160Z,20.40
2019-01-02T00:08:38.612Z,20.40
2019-01-02T00:11:19.584Z,20.40
2019-01-02T00:14:00.512Z,20.40
2019-01-02T00:16:41.140Z,20.40
2019-01-02T00:19:21.848Z,20.40
2019-01-02T00:22:02.754Z,20.40
2019-01-02T00:24:43.941Z,20.40
2019-01-02T00:27:24.447Z,20.40
2019-01-02T00:30:05.674Z,20.40
2019-01-02T00:32:46.788Z,20.40
2019-01-02T00:35:27.681Z,20.40
2019-01-02T00:38:09.365Z,20.40
2019-01-02T00:40:50.367Z,20.30
2019-01-02T00:43:31.282Z,20.30
2019-01-02T00:46:12.622Z,20.30
2019-01-02T00:48:53.604Z,20.30
2019-01-02T00:51:34.731Z,20.30
2019-01-02T00:54:15.642Z,20.30
2019-01-02T00:56:57.034Z,20.20
2019-01-02T00:59:38.034Z,20.20
2019-01-02T01:02:19.235Z,20.20
2019-01-02T01:05:00.383Z,20.20
2019-01-02T01:07:28.969Z,20.20
2019-01-02T01:10:17.154Z,20.20
2019-01-02T01:13:06.611Z,20.20
2019-01-02T01:15:56.045Z,20.20
2019-01-02T01:18:24.345Z,20.20
2019-01-02T01:21:14.067Z,20.10
2019-01-02T01:24:02.113Z,20.10
2019-01-02T01:26:50.062Z,20.10
2019-01-02T01:29:38.083Z,20.10
2019-01-02T01:32:06.971Z,20.10
2019-01-02T01:34:54.981Z,20.10
2019-01-02T01:37:23.275Z,20.10
2019-01-02T01:40:11.402Z,20.00
2019-01-02T01:42:59.470Z,20.00
2019-01-02T01:45:47.715Z,20.00
2019-01-02T01:48:35.762Z,20.00
2019-01-02T01:51:23.795Z,20.00
2019-01-02T01:54:11.835Z,20.00
2019-01-02T01:56:59.579Z,20.00
2019-01-02T01:59:49.032Z,20.00
2019-01-02T02:02:31.581Z,20.00
2019-01-02T02:05:12.620Z,20.00
2019-01-02T02:07:53.915Z,19.90
2019-01-02T02:10:34.951Z,19.90
2019-01-02T02:13:16.087Z,19.90
2019-01-02T02:15:56.915Z,19.90
2019-01-02T02:18:37.587Z,19.90
2019-01-02T02:21:18.206Z,19.90
2019-01-02T02:23:59.006Z,19.90
2019-01-02T02:26:39.894Z,19.90
2019-01-02T02:29:21.350Z,19.90
2019-01-02T02:32:02.238Z,19.80
2019-01-02T02:34:42.858Z,19.80
2019-01-02T02:37:23.679Z,19.80
2019-01-02T02:40:04.394Z,19.80
2019-01-02T02:42:45.454Z,19.80
2019-01-02T02:45:26.667Z,19.80
2019-01-02T02:48:08.179Z,19.80
2019-01-02T02:50:49.507Z,19.80
2019-01-02T02:53:31.034Z,19.80
2019-01-02T02:56:11.894Z,19.80
2019-01-02T02:58:52.871Z,19.80
2019-01-02T03:01:34.295Z,19.80
2019-01-02T03:04:15.540Z,19.70
2019-01-02T03:06:57.272Z,19.70
2019-01-02T03:09:38.136Z,19.70
2019-01-02T03:12:19.154Z,19.70
2019-01-02T03:14:59.675Z,19.70
2019-01-02T03:17:40.359Z,19.70
2019-01-02T03:20:21.298Z,19.70
2019-01-02T03:23:02.346Z,19.70
2019-01-02T03:25:43.149Z,19.70
2019-01-02T03:31:06.396Z,19.70
2019-01-02T03:33:47.491Z,19.70
2019-01-02T03:36:28.506Z,19.70
2019-01-02T03:39:09.883Z,19.60
2019-01-02T03:41:51.212Z,19.70
2019-01-02T03:44:32.159Z,19.60
2019-01-02T03:47:13.461Z,19.60
2019-01-02T03:49:54.279Z,19.60
2019-01-02T03:52:35.571Z,19.60
2019-01-02T03:55:15.984Z,19.60
2019-01-02T03:57:56.575Z,19.60
2019-01-02T04:00:37.774Z,19.60
2019-01-02T04:03:18.416Z,19.60
2019-01-02T04:05:59.308Z,19.60
2019-01-02T04:08:40.695Z,19.50
2019-01-02T04:11:21.539Z,19.50
2019-01-02T04:14:02.496Z,19.60
2019-01-02T04:16:43.179Z,19.60
2019-01-02T04:19:23.790Z,19.60
2019-01-02T04:22:05.023Z,19.50
2019-01-02T04:24:45.533Z,19.60
2019-01-02T04:27:26.739Z,19.60
2019-01-02T04:30:07.167Z,19.50
2019-01-02T04:32:48.251Z,19.50
2019-01-02T04:35:29.425Z,19.50
2019-01-02T04:38:10.068Z,19.40
2019-01-02T04:40:50.844Z,19.40
2019-01-02T04:43:32.042Z,19.40
2019-01-02T04:46:12.776Z,19.30
2019-01-02T04:48:53.951Z,19.30
2019-01-02T04:51:34.611Z,19.20
2019-01-02T04:54:15.944Z,19.20
2019-01-02T04:56:56.859Z,19.20
2019-01-02T04:59:37.063Z,19.20
2019-01-02T05:02:18.443Z,19.20
2019-01-02T05:04:59.587Z,19.10
2019-01-02T05:07:40.218Z,19.10
2019-01-02T05:10:21.625Z,19.10
2019-01-02T05:13:02.705Z,19.10
2019-01-02T05:15:43.406Z,19.10
2019-01-02T05:18:24.554Z,19.10
2019-01-02T05:21:05.808Z,19.00
2019-01-02T05:23:46.485Z,19.00
2019-01-02T05:26:27.307Z,19.00
2019-01-02T05:29:08.550Z,19.00
2019-01-02T05:34:32.345Z,19.00
2019-01-02T05:37:13.336Z,18.90
2019-01-02T05:39:54.352Z,18.90
2019-01-02T05:42:35.000Z,18.90
2019-01-02T05:45:15.779Z,18.90
2019-01-02T05:47:56.488Z,18.90
2019-01-02T05:50:37.863Z,18.90
2019-01-02T05:53:18.983Z,18.90
2019-01-02T05:55:59.895Z,18.90
2019-01-02T05:58:40.608Z,18.90
2019-01-02T06:01:20.945Z,18.90
2019-01-02T06:04:01.546Z,18.90
2019-01-02T06:06:42.703Z,18.80
2019-01-02T06:09:23.859Z,18.80
2019-01-02T06:12:04.169Z,18.80
2019-01-02T06:14:44.743Z,18.80
2019-01-02T06:17:25.679Z,18.80
2019-01-02T06:20:07.039Z,18.80
2019-01-02T06:22:47.722Z,18.80
2019-01-02T06:25:28.300Z,18.80
2019-01-02T06:28:09.326Z,18.70
2019-01-02T06:30:50.294Z,18.80
2019-01-02T06:33:31.046Z,18.80
2019-01-02T06:36:11.291Z,18.70
2019-01-02T06:38:52.339Z,18.70
2019-01-02T06:41:33.727Z,18.70
2019-01-02T06:44:14.643Z,18.70
2019-01-02T06:46:55.802Z,18.70
2019-01-02T06:49:36.675Z,18.70
2019-01-02T06:52:17.871Z,18.70
2019-01-02T06:54:58.262Z,18.70
2019-01-02T06:57:38.863Z,18.70
2019-01-02T07:00:19.260Z,18.70
2019-01-02T07:03:00.393Z,18.70
2019-01-02T07:05:40.647Z,18.70
2019-01-02T07:08:21.387Z,18.70
2019-01-02T07:11:02.558Z,18.70
2019-01-02T07:13:43.503Z,18.70
2019-01-02T07:16:24.492Z,18.70
2019-01-02T07:19:05.414Z,18.60
2019-01-02T07:21:45.851Z,18.60
2019-01-02T07:24:26.656Z,18.60
2019-01-02T07:27:07.524Z,18.60
2019-01-02T07:29:48.034Z,18.60
2019-01-02T07:32:28.867Z,18.60
2019-01-02T07:35:09.777Z,18.60
2019-01-02T07:37:50.635Z,18.60
2019-01-02T07:40:32.033Z,18.60
2019-01-02T07:43:12.849Z,18.60
2019-01-02T07:45:53.671Z,18.60
2019-01-02T07:48:34.385Z,18.60
2019-01-02T07:51:15.567Z,18.60
2019-01-02T07:53:56.820Z,18.60
2019-01-02T07:56:38.179Z,18.60
2019-01-02T07:59:19.117Z,18.60
2019-01-02T08:01:59.956Z,18.60
2019-01-02T08:04:41.387Z,18.60
2019-01-02T08:07:22.247Z,18.60
2019-01-02T08:10:02.911Z,18.50
2019-01-02T08:12:44.102Z,18.50
2019-01-02T08:15:24.387Z,18.50
2019-01-02T08:18:05.321Z,18.50
2019-01-02T08:20:45.593Z,18.50
2019-01-02T08:23:26.617Z,18.50
2019-01-02T08:26:07.631Z,18.50
2019-01-02T08:28:48.503Z,18.50
2019-01-02T08:31:28.999Z,18.50
2019-01-02T08:34:09.751Z,18.50
2019-01-02T08:36:50.924Z,18.50
2019-01-02T08:39:31.975Z,18.50
2019-01-02T08:42:13.089Z,18.50
2019-01-02T08:44:53.917Z,18.50
2019-01-02T08:47:35.068Z,18.50
2019-01-02T08:50:16.047Z,18.50
2019-01-02T08:52:57.335Z,18.50
2019-01-02T08:55:37.994Z,18.50
2019-01-02T08:58:18.974Z,18.50
2019-01-02T09:00:59.684Z,18.50
2019-01-02T09:03:40.784Z,18.40
2019-01-02T09:06:21.739Z,18.40
2019-01-02T09:09:02.074Z,18.40
2019-01-02T09:11:43.174Z,18.40
2019-01-02T09:14:24.146Z,18.40
2019-01-02T09:17:04.887Z,18.40
2019-01-02T09:19:45.778Z,18.40
2019-01-02T09:22:26.600Z,18.40
2019-01-02T09:25:07.502Z,18.40
2019-01-02T09:27:48.019Z,18.40
2019-01-02T09:30:28.791Z,18.40
2019-01-02T09:33:09.931Z,18.40
2019-01-02T09:35:50.884Z,18.40
2019-01-02T09:38:31.836Z,18.40
2019-01-02T09:41:12.388Z,18.40
2019-01-02T09:43:53.329Z,18.40
2019-01-02T09:46:34.351Z,18.40
2019-01-02T09:49:15.568Z,18.40
2019-01-02T09:51:59.939Z,18.40
2019-01-02T09:54:40.851Z,18.30
2019-01-02T09:57:21.701Z,18.30
2019-01-02T10:00:02.671Z,18.30
2019-01-02T10:02:43.828Z,18.30
2019-01-02T10:05:24.350Z,18.30
2019-01-02T10:08:05.051Z,18.30
2019-01-02T10:10:45.623Z,18.30
2019-01-02T10:13:26.174Z,18.30
2019-01-02T10:16:06.482Z,18.30
2019-01-02T10:18:47.300Z,18.30
2019-01-02T10:21:28.042Z,18.30
2019-01-02T10:24:09.292Z,18.30
2019-01-02T10:26:49.827Z,18.30
2019-01-02T10:29:30.834Z,18.30
2019-01-02T10:32:12.307Z,18.30
2019-01-02T10:34:53.126Z,18.30
2019-01-02T10:37:34.271Z,18.30
2019-01-02T10:40:15.264Z,18.30
2019-01-02T10:42:56.092Z,18.30
2019-01-02T10:45:36.879Z,18.30
2019-01-02T10:48:17.862Z,18.30
2019-01-02T10:50:59.167Z,18.30
2019-01-02T10:53:39.580Z,18.30
2019-01-02T10:56:20.294Z,18.30
2019-01-02T10:59:01.225Z,18.30
2019-01-02T11:01:41.789Z,18.30
2019-01-02T11:04:22.244Z,18.30
2019-01-02T11:07:02.710Z,18.20
2019-01-02T11:09:43.443Z,18.30
2019-01-02T11:12:24.275Z,18.30
2019-01-02T11:15:04.536Z,18.20
2019-01-02T11:17:45.373Z,18.30
2019-01-02T11:23:09.414Z,18.20
2019-01-02T11:25:50.549Z,18.20
2019-01-02T11:28:31.494Z,18.20
2019-01-02T11:31:12.556Z,18.20
2019-01-02T11:33:53.308Z,18.20
2019-01-02T11:36:34.368Z,18.20
2019-01-02T11:39:15.006Z,18.20
2019-01-02T11:41:56.158Z,18.20
2019-01-02T11:44:37.217Z,18.20
2019-01-02T11:47:18.089Z,18.20
2019-01-02T11:49:59.038Z,18.20
2019-01-02T11:52:39.626Z,18.20
2019-01-02T11:55:20.741Z,18.20
2019-01-02T11:58:01.659Z,18.20
2019-01-02T12:00:42.749Z,18.30
2019-01-02T12:03:23.771Z,18.40
2019-01-02T12:06:04.438Z,18.70
2019-01-02T12:08:45.730Z,18.90
2019-01-02T12:11:26.727Z,19.20
2019-01-02T12:14:07.694Z,19.30
2019-01-02T12:16:48.896Z,19.40
2019-01-02T12:19:29.656Z,19.50
2019-01-02T12:22:11.027Z,19.60
2019-01-02T12:24:52.396Z,19.70
2019-01-02T12:27:33.838Z,19.80
2019-01-02T12:30:15.081Z,19.90
2019-01-02T12:32:55.420Z,20.00
2019-01-02T12:35:36.478Z,20.00
2019-01-02T12:38:17.602Z,20.00
2019-01-02T12:40:58.821Z,20.10
2019-01-02T12:43:40.179Z,20.20
2019-01-02T12:46:21.450Z,20.20
2019-01-02T12:49:02.012Z,20.30
2019-01-02T12:51:43.238Z,20.30
2019-01-02T12:54:24.290Z,20.30
2019-01-02T12:57:05.483Z,20.30
2019-01-02T12:59:46.909Z,20.40
2019-01-02T13:02:27.840Z,20.40
2019-01-02T13:05:08.644Z,20.50
2019-01-02T13:07:49.415Z,20.50
2019-01-02T13:10:30.043Z,20.60
2019-01-02T13:13:11.126Z,20.60
2019-01-02T13:15:51.994Z,20.60
2019-01-02T13:18:33.213Z,20.60
2019-01-02T13:21:13.614Z,20.70
2019-01-02T13:23:54.410Z,20.80
2019-01-02T13:26:35.662Z,20.80
2019-01-02T13:29:16.376Z,20.80
2019-01-02T13:31:57.211Z,20.80
2019-01-02T13:34:38.321Z,20.80
2019-01-02T13:37:18.763Z,20.80
2019-01-02T13:39:59.479Z,20.70
2019-01-02T13:42:40.597Z,20.60
2019-01-02T13:45:21.538Z,20.50
2019-01-02T13:48:02.885Z,20.40
2019-01-02T13:50:43.946Z,20.30
2019-01-02T13:53:24.982Z,20.30
2019-01-02T13:56:05.652Z,20.30
2019-01-02T13:58:46.903Z,20.50
2019-01-02T14:01:27.649Z,20.70
2019-01-02T14:04:08.220Z,20.80
2019-01-02T14:06:48.804Z,20.80
2019-01-02T14:09:29.479Z,20.90
2019-01-02T14:12:10.218Z,21.00
2019-01-02T14:14:50.902Z,21.00
2019-01-02T14:17:31.955Z,21.10
2019-01-02T14:20:12.860Z,21.00
2019-01-02T14:22:53.163Z,21.10
2019-01-02T14:25:34.323Z,21.20
2019-01-02T14:28:14.572Z,21.30
2019-01-02T14:30:55.181Z,21.20
2019-01-02T14:33:36.295Z,21.00
2019-01-02T14:36:17.352Z,20.90
2019-01-02T14:38:58.347Z,20.80
2019-01-02T14:41:39.248Z,20.80
2019-01-02T14:44:20.518Z,20.80
2019-01-02T14:47:00.844Z,20.90
2019-01-02T14:49:42.212Z,21.00
2019-01-02T14:52:23.561Z,21.10
2019-01-02T14:55:04.343Z,21.00
2019-01-02T14:57:45.527Z,20.90
2019-01-02T15:00:26.510Z,20.80
2019-01-02T15:03:07.248Z,20.80
2019-01-02T15:05:48.269Z,20.60
2019-01-02T15:08:29.122Z,20.60
2019-01-02T15:11:10.250Z,20.80
2019-01-02T15:13:51.055Z,20.90
2019-01-02T15:16:32.234Z,21.00
2019-01-02T15:19:13.583Z,21.10
2019-01-02T15:21:54.821Z,21.20
2019-01-02T15:24:36.180Z,21.20
2019-01-02T15:27:17.490Z,21.10
2019-01-02T15:29:59.001Z,21.00
2019-01-02T15:32:40.179Z,20.80
2019-01-02T15:35:20.744Z,20.70
2019-01-02T15:38:05.139Z,20.70
2019-01-02T15:40:45.786Z,20.60
2019-01-02T15:43:26.755Z,20.50
2019-01-02T15:46:07.607Z,20.40
2019-01-02T15:48:48.211Z,20.50
2019-01-02T15:51:29.474Z,20.60
2019-01-02T15:54:10.511Z,20.80
2019-01-02T15:56:50.741Z,20.90
2019-01-02T15:59:31.787Z,21.10
2019-01-02T16:02:14.422Z,21.10
2019-01-02T16:04:55.387Z,21.10
2019-01-02T16:07:35.986Z,21.10
2019-01-02T16:10:17.365Z,21.10
2019-01-02T16:12:58.240Z,21.10
2019-01-02T16:15:39.072Z,21.00
2019-01-02T16:18:20.098Z,21.10
2019-01-02T16:21:00.847Z,21.10
2019-01-02T16:23:41.823Z,21.10
2019-01-02T16:26:22.654Z,20.90
2019-01-02T16:29:03.522Z,20.80
2019-01-02T16:31:44.303Z,20.70
2019-01-02T16:34:25.430Z,20.60
2019-01-02T16:37:06.680Z,20.60
2019-01-02T16:39:47.522Z,20.60
2019-01-02T16:42:28.068Z,20.70
2019-01-02T16:45:09.114Z,20.80
2019-01-02T16:47:53.751Z,21.00
2019-01-02T16:50:34.675Z,21.00
2019-01-02T16:53:15.721Z,20.90
2019-01-02T16:55:56.986Z,20.80
2019-01-02T16:58:38.195Z,20.70
2019-01-02T17:01:19.136Z,20.70
2019-01-02T17:03:59.801Z,20.60
2019-01-02T17:06:41.126Z,20.60
2019-01-02T17:09:22.121Z,20.60
2019-01-02T17:12:02.994Z,20.50
2019-01-02T17:14:44.381Z,20.50
2019-01-02T17:17:25.163Z,20.50
2019-01-02T17:20:06.043Z,20.50
2019-01-02T17:22:46.632Z,20.60
2019-01-02T17:25:27.847Z,20.70
2019-01-02T17:28:09.068Z,20.90
2019-01-02T17:30:49.357Z,21.00
2019-01-02T17:33:30.330Z,21.00
2019-01-02T17:36:11.076Z,21.00
2019-01-02T17:38:51.660Z,20.80
2019-01-02T17:41:32.919Z,20.80
2019-01-02T17:44:13.727Z,20.70
2019-01-02T17:46:54.026Z,20.70
2019-01-02T17:49:35.324Z,20.60
2019-01-02T17:52:16.398Z,20.60
2019-01-02T17:54:57.625Z,20.60
2019-01-02T17:57:38.697Z,20.60
2019-01-02T18:00:19.781Z,20.70
2019-01-02T18:03:01.076Z,20.80
2019-01-02T18:05:42.653Z,20.80
2019-01-02T18:08:23.816Z,20.80
2019-01-02T18:13:47.235Z,20.70
2019-01-02T18:16:28.473Z,20.60
2019-01-02T18:19:09.299Z,20.50
2019-01-02T18:21:49.910Z,20.50
2019-01-02T18:24:30.593Z,20.50
2019-01-02T18:27:11.665Z,20.50
2019-01-02T18:29:53.013Z,20.70
2019-01-02T18:32:34.202Z,20.90
2019-01-02T18:35:15.194Z,21.00
2019-01-02T18:37:56.256Z,21.10
2019-01-02T18:43:19.510Z,21.10
2019-01-02T18:46:00.505Z,21.00
2019-01-02T18:48:41.262Z,20.90
2019-01-02T18:51:21.966Z,20.80
2019-01-02T18:54:04.334Z,20.70
2019-01-02T18:56:45.792Z,20.60
2019-01-02T18:59:26.933Z,20.60
2019-01-02T19:02:08.419Z,20.60
2019-01-02T19:04:49.213Z,20.50
2019-01-02T19:07:30.453Z,20.50
2019-01-02T19:10:10.986Z,20.60
2019-01-02T19:12:52.521Z,20.60
2019-01-02T19:15:33.955Z,20.60
2019-01-02T19:18:14.827Z,20.50
2019-01-02T19:20:55.948Z,20.50
2019-01-02T19:23:37.241Z,20.40
2019-01-02T19:26:18.055Z,20.40
2019-01-02T19:28:58.881Z,20.30
2019-01-02T19:31:40.103Z,20.30
2019-01-02T19:34:20.785Z,20.50
2019-01-02T19:37:01.374Z,20.70
2019-01-02T19:39:42.723Z,20.80
2019-01-02T19:42:23.827Z,20.90
2019-01-02T19:45:05.123Z,21.10
2019-01-02T19:47:46.142Z,21.10
2019-01-02T19:50:27.021Z,21.10
2019-01-02T19:53:07.943Z,21.00
2019-01-02T19:55:48.730Z,20.90
2019-01-02T19:58:29.751Z,20.80
2019-01-02T20:00:58.071Z,20.80
2019-01-02T20:03:26.738Z,20.70
2019-01-02T20:05:55.128Z,20.60
2019-01-02T20:08:23.504Z,20.60
2019-01-02T20:10:51.826Z,20.50
2019-01-02T20:13:20.468Z,20.50
2019-01-02T20:15:49.114Z,20.50
2019-01-02T20:18:17.452Z,20.40
2019-01-02T20:20:45.741Z,20.50
2019-01-02T20:23:14.458Z,20.60
2019-01-02T20:25:42.777Z,20.80
2019-01-02T20:28:11.422Z,20.90
2019-01-02T20:30:39.715Z,21.00
2019-01-02T20:33:08.284Z,21.10
2019-01-02T20:35:36.871Z,21.10
2019-01-02T20:38:05.464Z,21.00
2019-01-02T20:40:34.157Z,20.90
2019-01-02T20:43:02.526Z,20.80
2019-01-02T20:45:31.213Z,20.70
2019-01-02T20:47:59.895Z,20.70
2019-01-02T20:50:28.574Z,20.60
2019-01-02T20:52:57.176Z,20.60
2019-01-02T20:55:27.392Z,20.50
2019-01-02T20:57:55.965Z,20.50
2019-01-02T21:00:24.550Z,20.40
2019-01-02T21:02:53.140Z,20.40
2019-01-02T21:05:21.731Z,20.40
2019-01-02T21:07:50.031Z,20.50
2019-01-02T21:10:18.333Z,20.60
2019-01-02T21:12:46.890Z,20.80
2019-01-02T21:15:15.545Z,20.80
2019-01-02T21:17:44.139Z,21.40
2019-01-02T21:20:12.809Z,21.00
2019-01-02T21:22:41.391Z,21.00
2019-01-02T21:25:09.683Z,21.00
2019-01-02T21:27:38.378Z,20.90
2019-01-02T21:30:09.194Z,20.80
2019-01-02T21:32:37.522Z,20.80
2019-01-02T21:35:05.888Z,20.70
2019-01-02T21:37:34.170Z,20.60
2019-01-02T21:40:02.474Z,20.60
2019-01-02T21:42:30.792Z,20.50
2019-01-02T21:44:59.095Z,20.50
2019-01-02T21:47:27.383Z,20.50
2019-01-02T21:49:55.691Z,20.50
2019-01-02T21:52:24.298Z,20.60
2019-01-02T21:54:53.182Z,20.70
2019-01-02T21:57:21.580Z,20.80
2019-01-02T21:59:50.296Z,20.80
2019-01-02T22:02:18.610Z,20.80
2019-01-02T22:04:46.913Z,20.80
2019-01-02T22:07:15.210Z,20.70
2019-01-02T22:09:44.382Z,20.70
2019-01-02T22:12:12.668Z,20.60
2019-01-02T22:14:41.341Z,20.60
2019-01-02T22:17:09.925Z,20.50
2019-01-02T22:19:38.361Z,20.50
2019-01-02T22:22:06.992Z,20.50
2019-01-02T22:24:35.298Z,20.40
2019-01-02T22:27:03.586Z,20.40
2019-01-02T22:29:31.899Z,20.30
2019-01-02T22:32:00.189Z,20.30
2019-01-02T22:34:28.786Z,20.30
2019-01-02T22:36:57.371Z,20.30
2019-01-02T22:39:25.959Z,20.20
2019-01-02T22:41:54.534Z,20.20
2019-01-02T22:44:23.118Z,20.20
2019-01-02T22:46:51.809Z,20.20
2019-01-02T22:49:20.388Z,20.20
2019-01-02T22:51:48.971Z,20.20
2019-01-02T22:54:17.256Z,20.20
2019-01-02T22:56:45.947Z,20.10
2019-01-02T22:59:14.526Z,20.10
2019-01-02T23:01:44.491Z,20.10
2019-01-02T23:04:20.474Z,20.10
2019-01-02T23:07:07.094Z,20.10
2019-01-02T23:09:37.028Z,20.10
2019-01-02T23:12:10.001Z,20.00
2019-01-02T23:14:42.590Z,20.00
2019-01-02T23:17:27.502Z,20.00
2019-01-02T23:20:13.817Z,20.00
2019-01-02T23:23:00.363Z,20.00
2019-01-02T23:25:33.448Z,20.00
2019-01-02T23:28:20.152Z,20.00
2019-01-02T23:31:08.596Z,19.90
2019-01-02T23:33:55.109Z,19.90
2019-01-02T23:36:27.796Z,19.90
2019-01-02T23:39:07.032Z,19.90
2019-01-02T23:41:46.259Z,19.90
2019-01-02T23:44:32.406Z,19.90
2019-01-02T23:47:18.005Z,19.90
2019-01-02T23:50:04.628Z,19.90
2019-01-02T23:52:40.791Z,19.90
2019-01-02T23:55:16.554Z,19.80
2019-01-02T23:57:46.870Z,19.80
